• Join FlightAware (Why Join?)
  • Login
  • US Flag 
01:53PM EDT


 

Airport Tracker/Info


-or-


 

Live Flight TrackerFlight Track Log ✈ N762NC ✈ 24-Aug-2013 ✈ KDTW - KPHL

Flight Track Log - Related Links

Times and Time Zones

All times are in EDT time to prevent confusion due to time zone crossing. See the N762NC flight status page for this flight to view local times or setup timezone preferences in your user account.

Time Position Orientation Groundspeed Altitude Reporting Facility
EDT Latitude Longitude Course Direction KTS MPH feet Rate Location/Type
10:37AM 42.2008 -83.3550 90° East 158 182 1,500  Level Cleveland Center
10:38AM 42.1608 -83.3550 180° South 231 266 2,300 1,500 Climbing Cleveland Center
10:39AM 42.1294 -83.3489 172° South 231 266 3,500 1,800 Climbing Cleveland Center
10:40AM 42.0603 -83.3250 166° South 255 293 5,300 2,040 Climbing Cleveland Center
10:41AM 42.2167 -82.7075 90° East  Level FlightAware Approximate
10:41AM 42.0603 -83.2197 90° East 278 320 7,800  Level Cleveland Center
10:42AM 42.2167 -82.5460 90° East  Level FlightAware Approximate
10:42AM 42.0897 -83.1036 71° East 291 335 10,000  Level Cleveland Center
10:43AM 42.2167 -82.3844 90° East  Level FlightAware Approximate
10:43AM 42.1258 -82.9928 66° East 332 382 11,000  Level Cleveland Center
10:44AM 42.1631 -82.8692 68° East 360 414 13,500 2,160 Climbing Cleveland Center
10:45AM 42.2022 -82.7458 67° East 360 414 15,500 1,740 Climbing Cleveland Center
10:46AM 42.2125 -82.6067 84° East 382 440 17,200 1,680 Climbing Cleveland Center
10:47AM 42.1986 -82.4267 96° East 400 460 19,000 1,620 Climbing Cleveland Center
10:48AM 42.1936 -82.2753 93° East 403 464 20,600 1,440 Climbing Cleveland Center
10:49AM 42.1889 -82.1239 92° East 418 481 22,000 1,260 Climbing Cleveland Center
10:50AM 42.1125 -81.9942 128° Southeast 440 506 23,300 1,200 Climbing Cleveland Center
10:51AM 42.0239 -81.8722 134° Southeast 450 518 24,500 1,080 Climbing Cleveland Center
10:52AM 41.9175 -81.7292 135° Southeast 460 529 25,600 1,080 Climbing Cleveland Center
10:53AM 41.8286 -81.5958 132° Southeast 470 541 26,800 1,020 Climbing Cleveland Center
10:54AM 41.7406 -81.4625 131° Southeast 472 543 27,800 960 Climbing Cleveland Center
10:55AM 41.6508 -81.3286 132° Southeast 474 545 28,800 540 Climbing Cleveland Center
10:56AM 41.5564 -81.1967 134° Southeast 481 554 29,000 60 Climbing Cleveland Center
10:57AM 41.4619 -81.0619 133° Southeast 488 562 29,000  Level Cleveland Center
10:58AM 41.3639 -80.9361 136° Southeast 485 558 29,000  Level Cleveland Center
10:59AM 41.2625 -80.8125 137° Southeast 486 559 29,000  Level Cleveland Center
11:00AM 41.1647 -80.6836 135° Southeast 489 563 29,000  Level Cleveland Center
11:02AM 41.0672 -80.5508 134° Southeast 488 562 29,000  Level Cleveland Center
11:03AM 40.9761 -80.4206 133° Southeast 483 556 29,000  Level Cleveland Center
11:04AM 40.8661 -80.2633 133° Southeast 485 558 29,000  Level Cleveland Center
11:05AM 40.7783 -80.1428 134° Southeast 484 557 29,000  Level Cleveland Center
11:06AM 40.7061 -79.9808 120° Southeast 479 551 29,000  Level Cleveland Center
11:07AM 40.6442 -79.8244 118° Southeast 477 549 29,000  Level Cleveland Center
11:08AM 40.5847 -79.6678 117° Southeast 476 548 29,000  Level Cleveland Center
11:09AM 40.5364 -79.5053 111° Southeast 475 547 29,000  Level Cleveland Center
11:10AM 40.5006 -79.3386 106° East 473 544 29,000  Level Cleveland Center
11:11AM 40.4742 -79.1644 101° East 467 537 29,000  Level Cleveland Center
11:12AM 40.4411 -78.9631 102° East 475 547 29,000  Level Cleveland Center
11:13AM 40.4133 -78.7975 102° East 472 543 29,000  Level Cleveland Center
11:14AM 40.3908 -78.6294 100° East 474 545 29,000 -60 Level Cleveland Center
11:15AM 40.3728 -78.4614 98° East 472 543 28,900 -960 Descending Cleveland Center
11:16AM 40.3525 -78.2897 99° East 478 550 27,100 -1,800 Descending Cleveland Center
11:17AM 40.3347 -78.0819 96° East 484 557 25,300 -1,080 Descending Cleveland Center
11:18AM 40.3267 -77.9172 94° East 463 533 25,000 -180 Descending Cleveland Center
11:19AM 40.3186 -77.7544 94° East 455 524 25,000 -540 Level Cleveland Center
11:20AM 40.2950 -77.5942 101° East 453 521 23,900 -1,200 Descending Cleveland Center
11:21AM 40.2650 -77.4383 104° East 449 517 22,700 -1,080 Descending New York Center
11:22AM 40.2331 -77.2611 103° East 454 522 21,800 -1,140 Descending New York Center
11:23AM 40.2094 -77.1203 102° East 449 517 20,500 -900 Descending New York Center
11:24AM 40.1886 -76.9608 100° East 444 511 20,000 -300 Descending New York Center
11:25AM 40.1664 -76.7903 100° East 434 499 19,900 -2,100 Descending New York Center
11:26AM 40.1592 -76.6403 94° East 428 493 15,900 -3,480 Descending New York Center
11:27AM 40.1497 -76.4956 95° East 413 475 13,000 -2,400 Descending New York Center
11:28AM 40.1333 -76.3611 99° East 396 456 11,100 -1,440 Descending New York Center
11:29AM 40.1194 -76.2569 100° East 344 396 10,200 -960 Descending New York Center
11:30AM 40.1100 -76.1419 96° East 294 338 9,200 -960 Descending New York Center
11:31AM 40.1064 -76.0386 93° East 289 333 8,300 -600 Descending New York Center
11:32AM 40.0961 -75.9403 98° East 283 326 8,100 -300 Descending New York Center
11:33AM 40.0839 -75.8389 99° East 277 319 7,700 -540 Descending New York Center
11:34AM 40.0325 -75.7728 135° Southeast 255 293 7,100 -720 Descending New York Center
11:35AM 39.9767 -75.7144 141° Southeast 261 300 6,300 -900 Descending New York Center
11:36AM 39.9261 -75.6731 148° Southeast 235 270 5,400 -900 Descending New York Center
11:37AM 39.8778 -75.6344 148° Southeast 211 243 4,500 -900 Descending New York Center
11:38AM 39.8500 -75.6167 154° Southeast 194 223 4,000 -660 Descending Philadelphia TRACON
11:39AM 39.8333 -75.5500 108° East 188 216 3,400 -480 Descending Philadelphia TRACON
11:40AM 39.8167 -75.4833 108° East 193 222 3,000 -600 Descending Philadelphia TRACON
11:41AM 39.8333 -75.4167 72° East 184 212 2,300 -900 Descending Philadelphia TRACON
11:42AM 39.8500 -75.3667 67° East 177 204 1,300 -900 Descending Philadelphia TRACON
11:43AM 39.8500 -75.3000 90° East 131 151 500 -840 Descending Philadelphia TRACON